createdAt,value
2023-05-04T00:01:11.644Z,9.13
2023-05-04T00:03:39.020Z,8.93
2023-05-04T00:06:06.595Z,8.90
2023-05-04T00:08:33.550Z,8.77
2023-05-04T00:11:00.499Z,8.70
2023-05-04T00:13:27.623Z,10.35
2023-05-04T00:15:54.722Z,9.70
2023-05-04T00:18:22.018Z,9.30
2023-05-04T00:20:49.217Z,9.73
2023-05-04T00:23:16.269Z,9.07
2023-05-04T00:25:43.415Z,8.32
2023-05-04T00:28:10.732Z,9.60
2023-05-04T00:30:38.092Z,9.43
2023-05-04T00:33:05.282Z,9.70
2023-05-04T00:35:32.328Z,8.65
2023-05-04T00:37:59.440Z,10.50
2023-05-04T00:40:26.481Z,9.63
2023-05-04T00:42:53.565Z,10.10
2023-05-04T00:45:21.035Z,9.27
2023-05-04T00:47:50.046Z,10.27
2023-05-04T00:50:17.201Z,9.38
2023-05-04T00:52:45.741Z,9.32
2023-05-04T00:55:14.564Z,9.30
2023-05-04T00:57:42.309Z,9.18
2023-05-04T01:00:12.488Z,9.85
2023-05-04T01:02:40.482Z,9.85
2023-05-04T01:05:08.642Z,10.13
2023-05-04T01:07:47.796Z,9.10
2023-05-04T01:10:51.036Z,9.98
2023-05-04T01:13:21.829Z,10.02
2023-05-04T01:15:49.854Z,9.45
2023-05-04T01:18:16.943Z,9.52
2023-05-04T01:20:44.112Z,9.57
2023-05-04T01:23:11.759Z,9.88
2023-05-04T01:26:02.925Z,9.35
2023-05-04T01:28:57.212Z,9.65
2023-05-04T01:31:27.481Z,9.77
2023-05-04T01:33:55.264Z,9.05
2023-05-04T01:36:23.312Z,9.85
2023-05-04T01:38:54.156Z,9.52
2023-05-04T01:41:21.707Z,9.65
2023-05-04T01:43:48.873Z,9.88
2023-05-04T01:46:15.904Z,8.75
2023-05-04T01:48:42.836Z,9.85
2023-05-04T01:51:09.713Z,10.30
2023-05-04T01:53:36.630Z,9.43
2023-05-04T01:56:03.703Z,9.90
2023-05-04T01:58:30.892Z,8.63
2023-05-04T02:00:59.432Z,8.77
2023-05-04T02:03:26.682Z,9.52
2023-05-04T02:05:53.760Z,9.07
2023-05-04T02:08:20.657Z,9.07
2023-05-04T02:10:48.221Z,9.20
2023-05-04T02:13:15.129Z,9.52
2023-05-04T02:15:42.181Z,9.25
2023-05-04T02:18:09.078Z,9.90
2023-05-04T02:20:36.003Z,9.02
2023-05-04T02:23:02.876Z,9.77
2023-05-04T02:25:30.759Z,10.27
2023-05-04T02:27:57.663Z,9.60
2023-05-04T02:30:24.567Z,9.63
2023-05-04T02:32:51.482Z,9.35
2023-05-04T02:35:18.401Z,9.32
2023-05-04T02:37:45.338Z,8.70
2023-05-04T02:40:12.949Z,8.13
2023-05-04T02:42:39.976Z,8.60
2023-05-04T02:45:07.807Z,8.88
2023-05-04T02:47:34.935Z,8.98
2023-05-04T02:50:02.010Z,9.10
2023-05-04T02:52:28.934Z,7.90
2023-05-04T02:54:55.813Z,8.75
2023-05-04T02:57:22.674Z,8.48
2023-05-04T02:59:49.597Z,8.85
2023-05-04T03:02:16.650Z,9.07
2023-05-04T03:04:43.849Z,10.15
2023-05-04T03:07:11.888Z,9.90
2023-05-04T03:09:39.381Z,9.13
2023-05-04T03:12:06.906Z,10.68
2023-05-04T03:14:33.949Z,10.65
2023-05-04T03:17:01.296Z,12.10
2023-05-04T03:19:28.422Z,13.20
2023-05-04T03:21:55.429Z,13.60
2023-05-04T03:24:22.586Z,13.20
2023-05-04T03:26:49.733Z,12.32
2023-05-04T03:29:16.778Z,12.05
2023-05-04T03:31:43.921Z,12.40
2023-05-04T03:34:12.894Z,12.65
2023-05-04T03:36:39.962Z,12.73
2023-05-04T03:39:07.841Z,12.50
2023-05-04T03:41:34.885Z,12.48
2023-05-04T03:44:01.899Z,11.98
2023-05-04T03:46:29.075Z,12.18
2023-05-04T03:48:57.236Z,11.98
2023-05-04T03:51:24.463Z,11.05
2023-05-04T03:53:51.521Z,13.55
2023-05-04T03:56:18.710Z,15.80
2023-05-04T03:58:45.864Z,14.45
2023-05-04T04:01:12.808Z,11.43
2023-05-04T04:03:41.144Z,15.55
2023-05-04T04:06:09.857Z,13.10
2023-05-04T04:08:37.204Z,11.30
2023-05-04T04:11:04.362Z,10.32
2023-05-04T04:13:31.451Z,11.00
2023-05-04T04:15:58.530Z,10.95
2023-05-04T04:18:25.648Z,10.35
2023-05-04T04:20:52.717Z,11.05
2023-05-04T04:23:19.897Z,10.18
2023-05-04T04:25:47.160Z,10.80
2023-05-04T04:28:14.846Z,10.98
2023-05-04T04:30:42.380Z,10.95
2023-05-04T04:33:10.300Z,13.02
2023-05-04T04:35:37.811Z,10.98
2023-05-04T04:38:05.203Z,10.43
2023-05-04T04:40:32.851Z,11.57
2023-05-04T04:42:59.907Z,9.50
2023-05-04T04:45:27.001Z,9.73
2023-05-04T04:47:54.033Z,9.48
2023-05-04T04:50:21.150Z,10.52
2023-05-04T04:52:48.261Z,9.45
2023-05-04T04:55:16.888Z,9.68
2023-05-04T04:57:43.929Z,8.82
2023-05-04T05:00:11.505Z,8.30
2023-05-04T05:02:38.594Z,7.93
2023-05-04T05:05:06.231Z,7.80
2023-05-04T05:07:33.297Z,8.98
2023-05-04T05:10:00.639Z,9.98
2023-05-04T05:12:27.628Z,8.88
2023-05-04T05:14:54.554Z,10.05
2023-05-04T05:17:21.664Z,9.38
2023-05-04T05:19:49.387Z,8.75
2023-05-04T05:22:16.632Z,8.43
2023-05-04T05:24:43.571Z,7.85
2023-05-04T05:27:10.544Z,5.57
2023-05-04T05:29:37.486Z,4.63
2023-05-04T05:32:04.622Z,3.83
2023-05-04T05:34:31.536Z,3.20
2023-05-04T05:36:58.549Z,3.35
2023-05-04T05:39:25.530Z,5.32
2023-05-04T05:41:57.645Z,5.53
2023-05-04T05:44:24.752Z,4.97
2023-05-04T05:46:51.746Z,4.13
2023-05-04T05:49:18.654Z,4.15
2023-05-04T05:51:45.977Z,4.10
2023-05-04T05:54:12.950Z,3.78
2023-05-04T05:56:39.848Z,3.70
2023-05-04T05:59:06.805Z,3.15
2023-05-04T06:01:33.722Z,3.55
2023-05-04T06:04:00.676Z,3.20
2023-05-04T06:06:27.814Z,3.03
2023-05-04T06:08:54.734Z,3.00
2023-05-04T06:11:21.641Z,3.90
2023-05-04T06:13:48.710Z,3.38
2023-05-04T06:16:15.766Z,2.60
2023-05-04T06:18:42.743Z,2.47
2023-05-04T06:21:10.007Z,3.60
2023-05-04T06:23:37.264Z,2.60
2023-05-04T06:26:10.869Z,3.03
2023-05-04T06:28:37.790Z,2.80
2023-05-04T06:31:04.747Z,2.15
2023-05-04T06:33:31.992Z,2.83
2023-05-04T06:35:58.889Z,2.60
2023-05-04T06:38:25.853Z,2.97
2023-05-04T06:40:52.797Z,2.90
2023-05-04T06:43:19.674Z,2.08
2023-05-04T06:45:46.616Z,3.55
2023-05-04T06:48:13.682Z,2.90
2023-05-04T06:50:41.197Z,2.92
2023-05-04T06:53:09.634Z,2.55
2023-05-04T06:55:37.574Z,2.88
2023-05-04T06:58:04.941Z,3.17
2023-05-04T07:00:32.244Z,3.05
2023-05-04T07:02:59.183Z,2.45
2023-05-04T07:05:26.470Z,3.58
2023-05-04T07:07:53.569Z,2.60
2023-05-04T07:10:20.648Z,3.03
2023-05-04T07:12:48.049Z,2.33
2023-05-04T07:15:15.121Z,2.70
2023-05-04T07:17:42.171Z,2.00
2023-05-04T07:20:09.583Z,2.20
2023-05-04T07:22:36.634Z,2.28
2023-05-04T07:25:04.181Z,1.95
2023-05-04T07:27:31.485Z,4.18
2023-05-04T07:29:58.490Z,2.65
2023-05-04T07:32:25.623Z,2.08
2023-05-04T07:34:52.618Z,2.13
2023-05-04T07:37:19.830Z,3.28
2023-05-04T07:39:46.788Z,2.53
2023-05-04T07:42:13.710Z,2.55
2023-05-04T07:44:41.524Z,2.05
2023-05-04T07:47:08.725Z,3.05
2023-05-04T07:49:35.647Z,2.00
2023-05-04T07:52:04.248Z,2.00
2023-05-04T07:54:31.492Z,2.35
2023-05-04T07:56:58.447Z,1.95
2023-05-04T07:59:25.522Z,2.25
2023-05-04T08:01:52.789Z,2.47
2023-05-04T08:04:19.796Z,2.40
2023-05-04T08:06:46.980Z,2.47
2023-05-04T08:09:13.906Z,2.10
2023-05-04T08:11:40.893Z,2.30
2023-05-04T08:14:08.309Z,2.17
2023-05-04T08:16:35.320Z,2.58
2023-05-04T08:19:02.361Z,2.33
2023-05-04T08:21:29.268Z,2.20
2023-05-04T08:23:56.251Z,2.00
2023-05-04T08:26:23.938Z,2.10
2023-05-04T08:28:51.001Z,2.15
2023-05-04T08:31:21.631Z,2.17
2023-05-04T08:33:48.589Z,2.22
2023-05-04T08:36:15.688Z,2.10
2023-05-04T08:38:42.672Z,2.30
2023-05-04T08:41:11.080Z,2.45
2023-05-04T08:43:38.430Z,2.50
2023-05-04T08:46:06.913Z,2.50
2023-05-04T08:48:35.797Z,2.13
2023-05-04T08:51:04.545Z,1.88
2023-05-04T08:53:32.779Z,1.65
2023-05-04T08:56:04.455Z,2.35
2023-05-04T08:58:32.688Z,1.88
2023-05-04T09:01:01.306Z,2.05
2023-05-04T09:03:29.741Z,1.98
2023-05-04T09:05:57.991Z,2.58
2023-05-04T09:08:24.994Z,2.50
2023-05-04T09:10:52.023Z,1.60
2023-05-04T09:13:18.998Z,2.50
2023-05-04T09:15:56.042Z,2.88
2023-05-04T09:18:23.511Z,3.00
2023-05-04T09:20:50.585Z,2.75
2023-05-04T09:23:18.748Z,3.65
2023-05-04T09:25:50.319Z,2.85
2023-05-04T09:28:18.425Z,2.97
2023-05-04T09:30:47.173Z,3.38
2023-05-04T09:33:14.204Z,3.38
2023-05-04T09:35:44.566Z,2.95
2023-05-04T09:38:11.670Z,2.70
2023-05-04T09:40:41.498Z,3.13
2023-05-04T09:43:09.534Z,2.80
2023-05-04T09:45:41.697Z,2.97
2023-05-04T09:48:29.405Z,3.33
2023-05-04T09:50:58.362Z,3.30
2023-05-04T09:53:29.959Z,2.60
2023-05-04T09:56:11.485Z,2.55
2023-05-04T09:58:39.119Z,3.42
2023-05-04T10:01:06.485Z,2.90
2023-05-04T10:03:33.640Z,3.10
2023-05-04T10:06:03.166Z,3.30
2023-05-04T10:08:30.493Z,2.58
2023-05-04T10:10:57.664Z,2.40
2023-05-04T10:13:25.344Z,2.67
2023-05-04T10:16:01.476Z,3.10
2023-05-04T10:18:55.738Z,3.28
2023-05-04T10:21:26.092Z,3.47
2023-05-04T10:24:21.894Z,2.50
2023-05-04T10:27:10.915Z,3.10
2023-05-04T10:29:38.692Z,3.10
2023-05-04T10:32:08.045Z,3.20
2023-05-04T10:34:35.987Z,3.80
2023-05-04T10:37:04.219Z,3.00
2023-05-04T10:39:32.819Z,3.47
2023-05-04T10:42:09.190Z,3.20
2023-05-04T10:44:49.939Z,2.70
2023-05-04T10:47:38.086Z,3.63
2023-05-04T10:50:14.625Z,2.70
2023-05-04T10:52:54.028Z,2.95
2023-05-04T10:55:22.127Z,3.63
2023-05-04T10:57:54.818Z,2.85
2023-05-04T11:00:22.934Z,3.38
2023-05-04T11:02:50.405Z,3.05
2023-05-04T11:05:20.372Z,3.10
2023-05-04T11:07:51.000Z,2.88
2023-05-04T11:10:25.634Z,2.47
2023-05-04T11:12:55.420Z,2.65
2023-05-04T11:15:22.638Z,3.45
2023-05-04T11:17:51.617Z,2.75
2023-05-04T11:20:26.600Z,2.95
2023-05-04T11:22:57.230Z,2.30
2023-05-04T11:25:28.824Z,2.40
2023-05-04T11:27:56.211Z,2.53
2023-05-04T11:30:31.605Z,2.50
2023-05-04T11:33:00.437Z,3.13
2023-05-04T11:35:27.571Z,2.42
2023-05-04T11:37:55.851Z,3.25
2023-05-04T11:40:25.516Z,2.28
2023-05-04T11:42:56.912Z,2.58
2023-05-04T11:45:32.570Z,2.75
2023-05-04T11:48:00.817Z,2.60
2023-05-04T11:50:28.778Z,2.45
2023-05-04T11:53:10.042Z,2.55
2023-05-04T11:55:40.273Z,2.72
2023-05-04T11:58:09.469Z,2.03
2023-05-04T12:00:40.556Z,2.30
2023-05-04T12:03:30.250Z,2.67
2023-05-04T12:06:07.300Z,2.63
2023-05-04T12:08:36.390Z,2.35
2023-05-04T12:11:13.312Z,3.78
2023-05-04T12:13:42.652Z,2.00
2023-05-04T12:16:13.649Z,2.60
2023-05-04T12:18:41.631Z,2.42
2023-05-04T12:21:19.564Z,2.75
2023-05-04T12:23:47.989Z,3.38
2023-05-04T12:26:18.962Z,3.10
2023-05-04T12:28:47.319Z,2.85
2023-05-04T12:31:14.506Z,2.83
2023-05-04T12:33:41.638Z,2.70
2023-05-04T12:36:08.833Z,4.25
2023-05-04T12:38:36.195Z,2.88
2023-05-04T12:41:04.585Z,3.45
2023-05-04T12:43:32.270Z,2.40
2023-05-04T12:45:59.673Z,2.47
2023-05-04T12:48:29.210Z,2.33
2023-05-04T12:50:56.249Z,2.92
2023-05-04T12:53:25.921Z,2.22
2023-05-04T12:55:53.090Z,2.88
2023-05-04T12:58:20.191Z,2.70
2023-05-04T13:00:47.220Z,2.63
2023-05-04T13:03:14.756Z,2.67
2023-05-04T13:05:41.739Z,2.90
2023-05-04T13:08:08.842Z,2.90
2023-05-04T13:10:36.007Z,2.53
2023-05-04T13:13:05.038Z,2.83
2023-05-04T13:15:33.426Z,3.20
2023-05-04T13:18:00.627Z,3.00
2023-05-04T13:20:27.915Z,3.13
2023-05-04T13:22:58.236Z,5.30
2023-05-04T13:25:25.767Z,3.53
2023-05-04T13:27:53.082Z,4.13
2023-05-04T13:30:21.836Z,3.15
2023-05-04T13:32:49.244Z,3.25
2023-05-04T13:35:16.770Z,3.92
2023-05-04T13:37:44.993Z,3.58
2023-05-04T13:40:12.624Z,3.05
2023-05-04T13:42:39.558Z,3.72
2023-05-04T13:45:08.014Z,2.80
2023-05-04T13:47:37.197Z,2.95
2023-05-04T13:50:04.689Z,3.05
2023-05-04T13:52:32.391Z,3.25
2023-05-04T13:55:00.119Z,3.20
2023-05-04T13:57:29.865Z,2.88
2023-05-04T14:00:05.674Z,3.08
2023-05-04T14:02:34.197Z,3.55
2023-05-04T14:05:01.500Z,2.78
2023-05-04T14:07:28.541Z,3.17
2023-05-04T14:09:56.538Z,3.22
2023-05-04T14:12:24.076Z,3.33
2023-05-04T14:14:51.433Z,3.25
2023-05-04T14:17:18.665Z,3.50
2023-05-04T14:19:45.873Z,3.38
2023-05-04T14:22:12.869Z,3.25
2023-05-04T14:24:39.885Z,3.20
2023-05-04T14:27:07.341Z,2.95
2023-05-04T14:29:34.507Z,3.13
2023-05-04T14:32:01.529Z,3.33
2023-05-04T14:34:28.502Z,3.03
2023-05-04T14:36:55.500Z,2.92
2023-05-04T14:39:22.582Z,3.25
2023-05-04T14:41:49.687Z,3.47
2023-05-04T14:44:16.611Z,3.60
2023-05-04T14:46:43.555Z,3.63
2023-05-04T14:49:12.500Z,3.25
2023-05-04T14:51:43.254Z,3.22
2023-05-04T14:54:10.172Z,3.38
2023-05-04T14:56:37.116Z,3.20
2023-05-04T14:59:04.059Z,3.63
2023-05-04T15:01:31.334Z,3.55
2023-05-04T15:03:58.348Z,3.33
2023-05-04T15:06:27.256Z,4.22
2023-05-04T15:08:54.143Z,3.00
2023-05-04T15:11:21.061Z,3.22
2023-05-04T15:13:47.952Z,2.95
2023-05-04T15:16:18.072Z,3.15
2023-05-04T15:18:45.115Z,3.50
2023-05-04T15:21:12.056Z,3.75
2023-05-04T15:23:39.142Z,2.80
2023-05-04T15:26:06.080Z,3.42
2023-05-04T15:28:33.031Z,3.13
2023-05-04T15:31:00.651Z,3.10
2023-05-04T15:33:27.564Z,2.95
2023-05-04T15:35:54.821Z,3.72
2023-05-04T15:38:22.112Z,3.33
2023-05-04T15:40:50.614Z,3.33
2023-05-04T15:43:17.952Z,5.03
2023-05-04T15:45:44.845Z,2.97
2023-05-04T15:48:11.784Z,3.28
2023-05-04T15:50:38.956Z,2.97
2023-05-04T15:53:06.101Z,2.90
2023-05-04T15:55:33.005Z,3.50
2023-05-04T15:58:00.206Z,4.47
2023-05-04T16:00:27.911Z,3.58
2023-05-04T16:02:55.232Z,3.80
2023-05-04T16:05:22.347Z,3.75
2023-05-04T16:07:49.472Z,4.70
2023-05-04T16:10:16.653Z,3.50
2023-05-04T16:12:43.636Z,3.97
2023-05-04T16:15:11.080Z,3.42
2023-05-04T16:17:38.106Z,3.70
2023-05-04T16:20:06.225Z,3.40
2023-05-04T16:22:34.380Z,3.80
2023-05-04T16:25:02.576Z,4.68
2023-05-04T16:27:29.597Z,3.72
2023-05-04T16:29:56.648Z,4.28
2023-05-04T16:32:23.717Z,3.40
2023-05-04T16:34:50.659Z,4.40
2023-05-04T16:37:18.992Z,4.20
2023-05-04T16:39:46.015Z,3.58
2023-05-04T16:42:13.078Z,3.25
2023-05-04T16:44:40.060Z,3.17
2023-05-04T16:47:07.230Z,2.75
2023-05-04T16:49:34.412Z,3.10
2023-05-04T16:52:02.235Z,2.70
2023-05-04T16:54:29.183Z,2.90
2023-05-04T16:56:56.257Z,2.80
2023-05-04T16:59:23.555Z,3.00
2023-05-04T17:01:50.678Z,2.97
2023-05-04T17:04:17.581Z,3.10
2023-05-04T17:06:44.504Z,2.90
2023-05-04T17:09:11.410Z,2.47
2023-05-04T17:11:38.373Z,3.20
2023-05-04T17:14:05.433Z,2.70
2023-05-04T17:16:32.518Z,2.83
2023-05-04T17:22:44.296Z,3.47
2023-05-04T17:28:58.445Z,9.32
2023-05-04T17:31:25.541Z,3.33
2023-05-04T17:33:52.616Z,2.75
2023-05-04T17:36:19.527Z,2.53
2023-05-04T17:38:46.648Z,2.58
2023-05-04T17:41:13.735Z,3.47
2023-05-04T17:43:40.933Z,3.00
2023-05-04T17:46:07.917Z,3.70
2023-05-04T17:48:36.536Z,7.82
2023-05-04T17:51:07.463Z,2.30
2023-05-04T17:53:34.906Z,2.92
2023-05-04T17:56:01.809Z,4.82
2023-05-04T17:58:28.971Z,1.83
2023-05-04T18:00:57.254Z,2.55
2023-05-04T18:03:24.278Z,2.92
2023-05-04T18:05:51.239Z,2.05
2023-05-04T18:08:18.187Z,2.85
2023-05-04T18:10:45.121Z,2.30
2023-05-04T18:13:12.103Z,2.78
2023-05-04T18:15:39.312Z,3.28
2023-05-04T18:18:06.370Z,3.13
2023-05-04T18:20:33.890Z,3.78
2023-05-04T18:23:00.786Z,3.08
2023-05-04T18:25:27.737Z,3.30
2023-05-04T18:27:54.789Z,4.53
2023-05-04T18:30:21.753Z,4.72
2023-05-04T18:32:49.037Z,3.20
2023-05-04T18:35:17.382Z,3.20
2023-05-04T18:37:44.617Z,3.00
2023-05-04T18:46:26.228Z,2.92
2023-05-04T18:48:53.436Z,2.88
2023-05-04T18:51:20.397Z,3.22
2023-05-04T18:53:48.222Z,2.80
2023-05-04T18:56:15.370Z,2.30
2023-05-04T18:58:42.430Z,2.65
2023-05-04T19:01:09.390Z,2.53
2023-05-04T19:03:36.835Z,2.95
2023-05-04T19:06:03.881Z,2.40
2023-05-04T19:08:30.823Z,2.55
2023-05-04T19:11:03.135Z,3.03
2023-05-04T19:13:30.533Z,2.80
2023-05-04T19:19:58.790Z,3.45
2023-05-04T19:22:26.065Z,2.72
2023-05-04T19:28:40.538Z,4.00
2023-05-04T19:31:07.495Z,3.65
2023-05-04T19:33:47.388Z,4.25
2023-05-04T19:36:16.246Z,4.70
2023-05-04T19:38:43.253Z,4.80
2023-05-04T19:41:10.249Z,4.32
2023-05-04T19:43:38.865Z,4.25
2023-05-04T19:46:06.222Z,5.13
2023-05-04T19:48:33.186Z,4.65
2023-05-04T19:54:48.678Z,5.30
2023-05-04T19:57:15.840Z,5.68
2023-05-04T19:59:45.413Z,6.03
2023-05-04T20:02:14.229Z,5.50
2023-05-04T20:04:41.218Z,4.80
2023-05-04T20:07:08.101Z,3.40
2023-05-04T20:09:35.314Z,2.75
2023-05-04T20:12:02.821Z,2.65
2023-05-04T20:14:29.946Z,2.70
2023-05-04T20:16:57.430Z,3.08
2023-05-04T20:19:24.377Z,2.67
2023-05-04T20:21:51.487Z,2.85
2023-05-04T20:24:18.880Z,3.10
2023-05-04T20:30:33.612Z,3.05
2023-05-04T20:33:01.405Z,3.55
2023-05-04T20:35:28.482Z,2.75
2023-05-04T20:37:55.417Z,2.53
2023-05-04T20:40:22.557Z,2.42
2023-05-04T20:42:49.476Z,2.60
2023-05-04T20:45:16.562Z,2.30
2023-05-04T20:47:43.647Z,2.90
2023-05-04T20:50:12.147Z,2.58
2023-05-04T20:52:39.202Z,2.47
2023-05-04T20:55:07.607Z,2.67
2023-05-04T20:57:35.010Z,2.92
2023-05-04T21:00:02.244Z,2.78
2023-05-04T21:02:29.312Z,2.53
2023-05-04T21:04:56.504Z,3.28
2023-05-04T21:07:23.620Z,1.98
2023-05-04T21:09:50.652Z,2.95
2023-05-04T21:12:17.665Z,2.30
2023-05-04T21:14:44.681Z,2.28
2023-05-04T21:17:12.017Z,2.25
2023-05-04T21:19:38.975Z,2.40
2023-05-04T21:22:06.133Z,2.10
2023-05-04T21:24:33.332Z,2.70
2023-05-04T21:27:00.634Z,2.53
2023-05-04T21:29:27.624Z,2.78
2023-05-04T21:31:54.702Z,2.10
2023-05-04T21:34:21.740Z,3.05
2023-05-04T21:36:48.705Z,2.13
2023-05-04T21:39:16.831Z,2.17
2023-05-04T21:41:43.829Z,2.03
2023-05-04T21:44:10.950Z,2.22
2023-05-04T21:46:37.923Z,2.70
2023-05-04T21:49:04.985Z,2.13
2023-05-04T21:51:32.051Z,1.80
2023-05-04T21:53:59.043Z,2.00
2023-05-04T21:56:26.024Z,2.08
2023-05-04T21:58:53.028Z,2.35
2023-05-04T22:01:20.189Z,2.53
2023-05-04T22:03:47.553Z,2.20
2023-05-04T22:06:14.623Z,2.35
2023-05-04T22:08:41.679Z,1.80
2023-05-04T22:11:09.261Z,3.17
2023-05-04T22:13:36.279Z,2.05
2023-05-04T22:16:03.410Z,2.10
2023-05-04T22:18:30.480Z,2.10
2023-05-04T22:20:57.498Z,1.90
2023-05-04T22:23:24.444Z,1.80
2023-05-04T22:25:51.579Z,2.13
2023-05-04T22:28:18.529Z,2.28
2023-05-04T22:30:45.486Z,1.73
2023-05-04T22:33:12.412Z,2.33
2023-05-04T22:35:39.333Z,2.33
2023-05-04T22:38:06.253Z,2.40
2023-05-04T22:40:33.326Z,2.25
2023-05-04T22:43:00.600Z,2.00
2023-05-04T22:45:27.705Z,2.97
2023-05-04T22:47:54.633Z,2.60
2023-05-04T22:50:21.588Z,2.70
2023-05-04T22:52:48.873Z,2.55
2023-05-04T22:55:15.877Z,2.28
2023-05-04T22:57:42.800Z,2.20
2023-05-04T23:00:10.728Z,2.22
2023-05-04T23:02:38.001Z,2.40
2023-05-04T23:05:06.029Z,2.25
2023-05-04T23:07:32.984Z,2.33
2023-05-04T23:10:00.324Z,2.20
2023-05-04T23:12:28.143Z,3.20
2023-05-04T23:14:55.147Z,3.22
2023-05-04T23:17:22.309Z,2.40
2023-05-04T23:19:49.283Z,2.60
2023-05-04T23:22:16.411Z,2.75
2023-05-04T23:24:43.457Z,2.42
2023-05-04T23:27:11.549Z,2.28
2023-05-04T23:29:38.686Z,2.30
2023-05-04T23:32:06.366Z,2.65
2023-05-04T23:34:33.383Z,2.38
2023-05-04T23:37:00.718Z,2.40
2023-05-04T23:39:27.918Z,2.33
2023-05-04T23:41:54.997Z,2.58
2023-05-04T23:44:22.036Z,3.05
2023-05-04T23:46:48.980Z,2.72
2023-05-04T23:49:16.464Z,2.70
2023-05-04T23:51:43.569Z,3.00
2023-05-04T23:54:10.629Z,3.20
2023-05-04T23:56:37.669Z,3.80
2023-05-04T23:59:04.559Z,3.10
